Sainte-Cecile-De-Masham, Canada
Current Conditions -  °F | °C
As of 9:00 PM on Sunday 21 Dec 2014 (Local Time) from CYND Reporting Station
Overcast Overcast  
Wind Chill: 19°   Ceiling: 1500
Heat Index: 19°   Visibility: 15mi
Dew Point: 16°   Wind: 2mph
Humidity: 86%   Direction: 140°SE
Pressure: 30.4"   Gusts: NA
Location:  45.65°N, 76.03°W
Report Text: CYND 220200Z 14002KT 15SM OVC015 M07/M09 A3040 RMK SC8 LAST OBS/NEXT 221200 UTC SLP300
Loading
Personal Weather Stations






























Interactive Weather Map New forecast layout! Learn more

10-Day Weather Forecast

Advertisements
Track Severe Weather on mobile